Time;durP1;ratioP1;P1;durP2;ratioP2;P2;SDS_P1;SDS_P2;PMS_P1;PMS_P2;Temp;Humidity;BMP_temperature;BMP_pressure;BME280_temperature;BME280_humidity;BME280_pressure;Samples;Min_cycle;Max_cycle;Signal;HPM_P1;HPM_P2
2022/05/18 00:01:06;;;;;;;16.77;15.68;;;22.30;59.20;;;;;;5009410;28;20050;-78
2022/05/18 00:03:35;;;;;;;17.40;16.20;;;22.20;59.10;;;;;;5009244;28;20041;-80
2022/05/18 00:06:02;;;;;;;16.80;15.80;;;22.00;59.20;;;;;;5010247;28;20033;-80
2022/05/18 00:08:35;;;;;;;17.70;16.42;;;22.00;59.00;;;;;;5009527;28;20045;-80
2022/05/18 00:11:04;;;;;;;17.20;16.20;;;22.10;58.90;;;;;;5007241;28;20030;-80
2022/05/18 00:13:30;;;;;;;17.88;16.52;;;22.00;58.80;;;;;;5007108;28;20045;-80
2022/05/18 00:15:56;;;;;;;17.42;16.33;;;21.90;59.10;;;;;;5010350;28;20038;-79
2022/05/18 00:18:22;;;;;;;16.73;15.50;;;21.80;59.40;;;;;;5008334;28;20479;-80
2022/05/18 00:20:48;;;;;;;15.30;14.15;;;21.70;59.60;;;;;;5009866;28;20045;-78
2022/05/18 00:23:14;;;;;;;15.10;14.10;;;21.70;59.90;;;;;;5005317;28;20387;-80
2022/05/18 00:25:40;;;;;;;14.98;13.98;;;21.60;59.80;;;;;;5010169;28;20038;-80
2022/05/18 00:28:06;;;;;;;15.05;14.15;;;21.60;59.90;;;;;;4994706;28;20052;-80
2022/05/18 00:30:33;;;;;;;15.60;14.25;;;21.60;60.00;;;;;;4994093;28;20033;-80
2022/05/18 00:33:05;;;;;;;15.85;14.60;;;21.40;60.70;;;;;;5006920;28;20467;-80
2022/05/18 00:35:32;;;;;;;15.55;14.32;;;21.40;60.50;;;;;;5009057;28;20030;-80
2022/05/18 00:37:58;;;;;;;14.80;13.35;;;21.40;60.70;;;;;;5007813;28;20041;-80
2022/05/18 00:40:24;;;;;;;13.98;13.07;;;21.20;61.30;;;;;;5007295;28;20050;-80
2022/05/18 00:42:50;;;;;;;14.05;13.05;;;21.20;61.60;;;;;;5010391;28;20387;-80
2022/05/18 00:45:17;;;;;;;14.68;13.55;;;21.20;61.50;;;;;;4992147;28;20069;-80
2022/05/18 00:47:43;;;;;;;14.02;12.98;;;21.30;60.90;;;;;;5008277;28;20497;-80
2022/05/18 00:50:10;;;;;;;14.45;13.15;;;21.30;60.90;;;;;;5008885;28;20372;-80
2022/05/18 00:52:42;;;;;;;14.25;13.15;;;21.20;61.90;;;;;;5008964;28;20037;-80
2022/05/18 00:55:09;;;;;;;13.57;12.63;;;21.00;62.20;;;;;;5008802;28;20030;-80
2022/05/18 00:57:40;;;;;;;14.38;13.25;;;21.00;62.30;;;;;;4989567;28;20394;-80
2022/05/18 01:00:08;;;;;;;;;;;20.90;62.60;;;;;;5009153;28;20032;-81
2022/05/18 01:02:35;;;;;;;12.82;11.80;;;20.90;62.40;;;;;;4992509;28;19913;-80
2022/05/18 01:05:02;;;;;;;14.02;12.88;;;21.00;62.20;;;;;;5008814;28;20520;-80
2022/05/18 01:07:36;;;;;;;13.43;12.32;;;21.00;62.00;;;;;;5008179;28;20495;-80
2022/05/18 01:10:02;;;;;;;14.80;13.65;;;21.10;61.70;;;;;;5007320;28;20034;-80
2022/05/18 01:12:28;;;;;;;13.65;12.80;;;21.10;61.80;;;;;;4990022;28;20038;-80
2022/05/18 01:15:02;;;;;;;13.60;12.52;;;21.00;61.50;;;;;;5008276;28;20037;-80
2022/05/18 01:17:34;;;;;;;13.75;12.55;;;21.10;61.70;;;;;;4988154;28;20049;-80
2022/05/18 01:20:01;;;;;;;14.43;13.23;;;21.10;61.30;;;;;;5007050;28;20028;-80
2022/05/18 01:22:53;;;;;;;13.80;12.60;;;21.10;61.20;;;;;;4990711;28;20045;-79
2022/05/18 01:25:41;;;;;;;14.38;13.15;;;21.10;61.20;;;;;;4999124;28;20043;-80
2022/05/18 01:28:07;;;;;;;14.25;13.00;;;21.00;61.50;;;;;;5005426;28;20038;-80
2022/05/18 01:30:34;;;;;;;14.60;13.40;;;21.00;61.20;;;;;;5006386;28;20037;-80
2022/05/18 01:33:03;;;;;;;13.82;12.80;;;21.00;61.30;;;;;;4990838;28;20041;-80
2022/05/18 01:35:31;;;;;;;12.82;11.85;;;21.00;61.40;;;;;;4976411;28;20076;-79
2022/05/18 01:37:57;;;;;;;13.27;12.38;;;20.90;61.50;;;;;;5006306;28;20049;-80
2022/05/18 01:40:32;;;;;;;14.15;13.15;;;20.90;61.50;;;;;;4991576;28;20034;-79
2022/05/18 01:43:11;;;;;;;13.63;12.50;;;20.90;61.70;;;;;;4981309;28;20049;-80
2022/05/18 01:45:37;;;;;;;13.48;12.52;;;20.90;61.70;;;;;;5008142;28;20606;-79
2022/05/18 01:48:12;;;;;;;14.23;13.20;;;20.80;62.00;;;;;;4990033;28;20042;-79
2022/05/18 01:50:38;;;;;;;13.48;12.68;;;20.90;62.00;;;;;;5007138;28;20419;-80
2022/05/18 01:53:05;;;;;;;13.93;12.82;;;20.80;61.60;;;;;;4994893;28;20029;-79
2022/05/18 01:55:32;;;;;;;13.50;12.40;;;20.80;61.80;;;;;;5010297;28;20046;-80
2022/05/18 01:57:58;;;;;;;13.15;12.25;;;20.70;61.90;;;;;;4995348;28;20606;-80
2022/05/18 02:00:25;;;;;;;13.15;11.95;;;20.70;62.10;;;;;;5008918;28;20044;-80
2022/05/18 02:02:51;;;;;;;12.95;11.95;;;20.60;62.20;;;;;;4989940;28;20034;-80
2022/05/18 02:05:17;;;;;;;13.52;12.40;;;20.60;62.30;;;;;;5006603;28;20394;-79
2022/05/18 02:07:43;;;;;;;13.43;12.38;;;20.50;62.40;;;;;;4984841;28;20033;-81
2022/05/18 02:10:09;;;;;;;13.30;12.20;;;20.50;62.40;;;;;;5012811;28;20037;-80
2022/05/18 02:12:36;;;;;;;13.50;12.50;;;20.50;62.40;;;;;;5010759;28;20498;-80
2022/05/18 02:15:03;;;;;;;12.82;11.88;;;20.50;62.40;;;;;;5009576;28;20381;-80
2022/05/18 02:17:30;;;;;;;12.35;11.50;;;20.40;62.60;;;;;;4996877;28;20064;-80
2022/05/18 02:19:57;;;;;;;13.45;12.35;;;20.50;62.70;;;;;;4996878;28;20044;-80
2022/05/18 02:22:26;;;;;;;12.80;11.57;;;20.50;62.50;;;;;;5010431;28;20037;-81
2022/05/18 02:24:52;;;;;;;12.15;11.25;;;20.40;62.50;;;;;;4996491;28;20530;-81
2022/05/18 02:27:18;;;;;;;12.73;11.50;;;20.40;62.80;;;;;;5008970;28;20038;-81
2022/05/18 02:29:44;;;;;;;13.07;11.60;;;20.40;64.00;;;;;;5005331;28;20026;-79
2022/05/18 02:32:10;;;;;;;12.40;11.45;;;20.40;63.10;;;;;;5006017;28;20344;-77
2022/05/18 02:34:37;;;;;;;12.93;11.50;;;20.40;63.30;;;;;;5005282;28;20030;-78
2022/05/18 02:37:03;;;;;;;12.13;11.30;;;20.40;63.60;;;;;;5014166;28;20046;-78
2022/05/18 02:39:30;;;;;;;12.80;11.80;;;20.30;63.40;;;;;;5006017;28;20443;-78
2022/05/18 02:41:56;;;;;;;12.65;11.55;;;20.20;63.60;;;;;;4994131;28;20439;-77
2022/05/18 02:44:22;;;;;;;11.70;10.85;;;20.20;63.70;;;;;;4994450;28;20038;-77
2022/05/18 02:46:48;;;;;;;12.27;11.30;;;20.20;63.80;;;;;;5011961;28;20041;-78
2022/05/18 02:49:15;;;;;;;12.02;11.13;;;20.10;63.80;;;;;;5010610;28;20041;-77
2022/05/18 02:51:41;;;;;;;12.57;11.25;;;20.20;63.90;;;;;;4990477;28;20053;-78
2022/05/18 02:56:53;;;;;;;11.52;10.70;;;20.10;64.40;;;;;;5012247;28;20060;-77
2022/05/18 02:59:20;;;;;;;11.40;10.48;;;20.10;63.90;;;;;;5011253;28;20022;-78
2022/05/18 03:01:46;;;;;;;11.40;10.40;;;20.10;64.10;;;;;;4999492;28;20034;-77
2022/05/18 03:04:13;;;;;;;12.10;11.00;;;20.00;63.70;;;;;;5011612;28;20467;-77
2022/05/18 03:06:39;;;;;;;11.88;10.88;;;20.00;64.10;;;;;;4993637;28;20045;-77
2022/05/18 03:09:05;;;;;;;11.23;10.43;;;20.00;64.40;;;;;;5012938;28;20407;-77
2022/05/18 03:11:31;;;;;;;11.90;11.00;;;20.00;64.50;;;;;;5012282;28;20045;-77
2022/05/18 03:13:57;;;;;;;11.60;10.70;;;20.00;64.10;;;;;;5013751;28;20032;-77
2022/05/18 03:16:24;;;;;;;11.80;10.80;;;19.90;64.30;;;;;;5013292;28;20030;-77
2022/05/18 03:18:50;;;;;;;11.35;10.55;;;19.80;64.90;;;;;;5011903;28;20034;-77
2022/05/18 03:24:00;;;;;;;11.70;10.60;;;19.90;65.00;;;;;;5015002;28;20045;-76
2022/05/18 03:26:27;;;;;;;11.55;10.50;;;19.80;64.80;;;;;;5013038;28;20475;-76
2022/05/18 03:28:56;;;;;;;11.02;9.98;;;19.80;64.70;;;;;;5013196;28;20038;-76
2022/05/18 03:31:23;;;;;;;11.55;10.50;;;19.80;64.90;;;;;;5013363;28;20625;-76
2022/05/18 03:33:50;;;;;;;11.10;10.20;;;19.80;65.30;;;;;;4993589;28;20042;-76
2022/05/18 03:36:16;;;;;;;11.00;10.10;;;19.80;65.20;;;;;;5012527;28;20091;-77
2022/05/18 03:38:44;;;;;;;10.68;9.68;;;19.80;65.50;;;;;;5011630;28;20033;-78
2022/05/18 03:41:10;;;;;;;11.07;10.00;;;19.80;65.70;;;;;;5008887;28;20487;-80
2022/05/18 03:43:36;;;;;;;10.85;9.95;;;19.70;65.40;;;;;;5012019;28;20037;-80
2022/05/18 03:46:03;;;;;;;10.98;9.90;;;19.70;65.80;;;;;;5010679;28;20034;-80
2022/05/18 03:48:29;;;;;;;11.45;10.48;;;19.70;65.60;;;;;;5011627;28;20045;-80
2022/05/18 03:50:57;;;;;;;11.23;10.30;;;19.60;66.30;;;;;;5012082;28;20756;-79
2022/05/18 03:53:23;;;;;;;10.80;9.90;;;19.70;65.90;;;;;;5007356;28;20033;-80
2022/05/18 03:55:49;;;;;;;10.50;9.70;;;19.60;65.70;;;;;;5012651;28;20041;-80
2022/05/18 03:58:16;;;;;;;10.95;9.88;;;19.50;66.20;;;;;;5013079;28;20034;-80
2022/05/18 04:00:43;;;;;;;10.45;9.65;;;19.50;66.50;;;;;;4993484;28;20036;-80
2022/05/18 04:03:10;;;;;;;13.48;10.30;;;19.60;66.50;;;;;;4980103;28;20038;-80
2022/05/18 04:05:40;;;;;;;11.15;10.32;;;19.50;66.20;;;;;;5013063;28;20483;-80
2022/05/18 04:08:07;;;;;;;10.55;9.85;;;19.50;66.40;;;;;;5012801;28;20045;-80
2022/05/18 04:10:34;;;;;;;11.43;10.45;;;19.50;66.00;;;;;;5012455;28;20101;-80
2022/05/18 04:13:00;;;;;;;12.65;10.63;;;19.40;66.20;;;;;;4994282;28;20398;-80
2022/05/18 04:15:27;;;;;;;10.90;10.07;;;19.40;66.30;;;;;;5010727;28;20037;-80
2022/05/18 04:17:53;;;;;;;11.40;10.30;;;19.40;66.70;;;;;;4996239;28;20034;-80
2022/05/18 04:20:20;;;;;;;11.88;10.88;;;19.40;66.30;;;;;;5012500;28;20022;-80
2022/05/18 04:22:47;;;;;;;11.45;10.52;;;19.40;66.50;;;;;;5012696;28;20021;-80
2022/05/18 04:25:15;;;;;;;11.52;10.55;;;19.30;66.70;;;;;;4993747;28;20034;-80
2022/05/18 04:27:42;;;;;;;11.75;10.65;;;19.30;66.60;;;;;;4997438;28;20414;-80
2022/05/18 04:30:09;;;;;;;11.65;10.75;;;19.30;67.00;;;;;;5012940;28;20507;-80
2022/05/18 04:32:38;;;;;;;11.90;10.98;;;19.40;67.10;;;;;;4996158;28;20042;-79
2022/05/18 04:35:05;;;;;;;11.93;11.13;;;19.40;67.10;;;;;;4991506;28;20037;-79
2022/05/18 04:37:31;;;;;;;14.88;13.30;;;19.40;67.10;;;;;;4998748;28;20080;-79
2022/05/18 04:39:57;;;;;;;11.95;10.82;;;19.30;67.30;;;;;;5011351;28;20423;-79
2022/05/18 04:42:23;;;;;;;11.80;10.65;;;19.40;67.50;;;;;;5010876;28;20038;-80
2022/05/18 04:44:52;;;;;;;11.95;10.98;;;19.40;67.20;;;;;;4994921;28;20037;-80
2022/05/18 04:47:22;;;;;;;12.55;11.32;;;19.40;67.30;;;;;;5010559;28;20041;-80
2022/05/18 04:49:50;;;;;;;11.75;10.77;;;19.30;67.50;;;;;;5012757;28;20032;-80
2022/05/18 04:52:17;;;;;;;12.27;11.05;;;19.30;67.40;;;;;;5011975;28;20026;-80
2022/05/18 04:54:44;;;;;;;11.63;10.73;;;19.30;67.70;;;;;;4993121;28;20038;-79
2022/05/18 04:57:10;;;;;;;11.82;10.70;;;19.30;67.50;;;;;;5011889;28;20034;-80
2022/05/18 04:59:36;;;;;;;12.75;11.65;;;19.30;67.80;;;;;;5011504;28;20045;-80
2022/05/18 05:02:02;;;;;;;11.82;10.73;;;19.30;68.00;;;;;;5012238;28;20029;-80
2022/05/18 05:04:29;;;;;;;12.50;11.30;;;19.30;68.00;;;;;;5012057;28;20025;-80
2022/05/18 05:06:55;;;;;;;11.60;10.77;;;19.30;68.20;;;;;;5011593;28;20467;-80
2022/05/18 05:09:24;;;;;;;12.50;11.32;;;19.30;68.50;;;;;;5011432;28;20224;-80
2022/05/18 05:11:53;;;;;;;12.63;11.52;;;19.30;68.20;;;;;;4993092;28;20042;-80
2022/05/18 05:14:20;;;;;;;12.02;10.88;;;19.30;68.40;;;;;;5006243;28;20022;-80
2022/05/18 05:16:46;;;;;;;12.52;11.40;;;19.30;69.20;;;;;;5007283;28;20034;-80
2022/05/18 05:19:12;;;;;;;10.90;10.20;;;19.40;69.10;;;;;;5010872;28;20042;-79
2022/05/18 05:21:42;;;;;;;11.77;10.68;;;19.60;69.60;;;;;;5011541;28;20034;-81
2022/05/18 05:24:09;;;;;;;12.43;11.25;;;19.70;69.50;;;;;;5012247;28;20379;-79
2022/05/18 05:26:35;;;;;;;12.73;11.55;;;19.70;69.10;;;;;;5007146;28;20380;-79
2022/05/18 05:29:02;;;;;;;13.70;12.40;;;19.90;69.30;;;;;;5011518;28;20041;-79
2022/05/18 05:31:28;;;;;;;14.57;13.13;;;20.00;68.40;;;;;;5010398;28;20029;-77
2022/05/18 05:33:54;;;;;;;14.60;13.70;;;20.10;68.10;;;;;;5006451;28;20030;-79
2022/05/18 05:36:20;;;;;;;15.57;14.02;;;20.20;68.00;;;;;;5012111;28;20022;-77
2022/05/18 05:38:46;;;;;;;16.67;15.38;;;20.40;67.50;;;;;;5007175;28;20052;-75
2022/05/18 05:41:12;;;;;;;17.27;15.77;;;20.50;67.40;;;;;;5010575;28;20490;-74
2022/05/18 05:43:40;;;;;;;18.55;17.33;;;20.70;67.00;;;;;;5011546;28;20038;-75
2022/05/18 05:46:10;;;;;;;18.80;17.58;;;20.80;66.40;;;;;;5010183;28;20033;-74
2022/05/18 05:48:36;;;;;;;19.17;18.00;;;20.90;66.20;;;;;;5011018;28;20490;-75
2022/05/18 05:51:03;;;;;;;18.10;16.77;;;21.10;65.10;;;;;;5009985;28;20053;-76
2022/05/18 05:53:29;;;;;;;18.73;17.27;;;21.20;65.10;;;;;;5011478;28;20026;-75
2022/05/18 05:55:55;;;;;;;19.05;17.70;;;21.30;64.20;;;;;;5010089;28;20061;-77
2022/05/18 05:58:22;;;;;;;16.58;15.48;;;21.40;64.20;;;;;;5010701;28;20054;-76
2022/05/18 06:00:48;;;;;;;16.42;15.43;;;21.50;63.10;;;;;;5009295;28;20030;-75
2022/05/18 06:03:15;;;;;;;16.45;15.13;;;21.10;63.70;;;;;;5011692;28;20030;-74
2022/05/18 06:05:41;;;;;;;16.75;15.60;;;20.80;64.10;;;;;;5011221;28;20026;-75
2022/05/18 06:08:07;;;;;;;16.13;14.93;;;20.80;64.80;;;;;;5011316;28;20041;-74
2022/05/18 06:10:34;;;;;;;16.67;15.52;;;20.90;64.90;;;;;;5010194;28;20033;-75
2022/05/18 06:13:07;;;;;;;16.50;15.27;;;20.90;64.80;;;;;;5009956;28;20030;-76
2022/05/18 06:15:34;;;;;;;15.85;14.85;;;20.60;65.70;;;;;;5007576;28;20395;-75
2022/05/18 06:18:00;;;;;;;15.50;14.32;;;20.50;66.40;;;;;;5010858;28;20038;-76
2022/05/18 06:20:26;;;;;;;16.23;14.88;;;20.60;66.20;;;;;;4993191;28;20042;-76
2022/05/18 06:22:52;;;;;;;15.95;14.55;;;20.80;66.50;;;;;;5011405;28;20053;-75
2022/05/18 06:25:18;;;;;;;16.05;14.82;;;20.90;65.80;;;;;;5010556;28;20383;-77
2022/05/18 06:27:44;;;;;;;15.15;14.13;;;21.10;66.00;;;;;;5010316;28;20034;-76
2022/05/18 06:30:12;;;;;;;15.65;14.65;;;21.30;64.30;;;;;;5010885;28;20490;-75
2022/05/18 06:32:38;;;;;;;16.40;14.80;;;21.20;64.30;;;;;;5011074;28;20387;-77
2022/05/18 06:35:05;;;;;;;15.77;14.75;;;21.30;64.00;;;;;;5010571;28;20026;-77
2022/05/18 06:37:31;;;;;;;15.65;14.25;;;21.40;64.10;;;;;;5005969;28;20056;-75
2022/05/18 06:39:57;;;;;;;15.52;14.52;;;21.50;64.10;;;;;;4991496;28;20026;-77
2022/05/18 06:42:23;;;;;;;15.80;14.68;;;21.70;63.50;;;;;;4993755;28;20033;-79
2022/05/18 06:44:50;;;;;;;16.20;15.05;;;21.60;63.10;;;;;;5013846;28;20034;-78
2022/05/18 06:47:17;;;;;;;16.23;15.10;;;21.50;63.70;;;;;;5013348;28;20034;-79
2022/05/18 06:49:43;;;;;;;16.73;15.43;;;21.40;63.50;;;;;;5013267;28;20053;-79
2022/05/18 06:52:11;;;;;;;17.27;15.77;;;21.40;64.20;;;;;;5009967;28;20033;-80
2022/05/18 06:54:38;;;;;;;15.75;14.65;;;21.60;63.80;;;;;;5012988;28;20042;-79
2022/05/18 06:57:04;;;;;;;15.80;14.55;;;21.60;63.30;;;;;;5009774;28;20022;-80
2022/05/18 06:59:30;;;;;;;15.27;14.20;;;21.60;62.70;;;;;;5010333;28;20060;-81
2022/05/18 07:01:57;;;;;;;16.00;14.75;;;21.70;63.00;;;;;;5010729;28;20037;-82
2022/05/18 07:04:24;;;;;;;16.67;15.48;;;21.60;62.70;;;;;;5012513;28;20037;-82
2022/05/18 07:06:50;;;;;;;16.65;15.27;;;21.70;62.90;;;;;;5012536;28;20034;-82
2022/05/18 07:09:19;;;;;;;16.40;14.85;;;21.70;62.40;;;;;;5009392;28;20033;-79
2022/05/18 07:11:46;;;;;;;15.38;14.38;;;21.80;62.40;;;;;;5009336;28;20025;-81
2022/05/18 07:14:13;;;;;;;16.10;15.18;;;21.80;62.20;;;;;;5009699;28;20030;-80
2022/05/18 07:16:40;;;;;;;15.70;14.68;;;21.70;62.70;;;;;;5010579;28;20380;-80
2022/05/18 07:19:06;;;;;;;16.20;15.00;;;21.70;63.40;;;;;;5012396;28;20376;-81
2022/05/18 07:21:33;;;;;;;16.52;15.45;;;22.00;62.40;;;;;;4995674;28;20030;-80
2022/05/18 07:23:59;;;;;;;16.10;14.77;;;21.90;61.90;;;;;;5005967;28;20037;-80
2022/05/18 07:26:26;;;;;;;15.80;14.90;;;21.80;62.80;;;;;;4994986;28;20034;-78
2022/05/18 07:28:52;;;;;;;16.10;14.88;;;22.10;62.60;;;;;;4993184;28;20048;-81
2022/05/18 07:31:19;;;;;;;15.52;14.63;;;22.20;64.00;;;;;;5008282;28;20392;-82
2022/05/18 07:33:47;;;;;;;16.30;15.30;;;22.30;62.20;;;;;;4995552;28;20517;-82
2022/05/18 07:36:14;;;;;;;17.08;15.77;;;22.40;62.20;;;;;;4973109;28;20037;-79
2022/05/18 07:38:40;;;;;;;17.15;16.02;;;22.20;62.90;;;;;;4972741;28;20057;-79
2022/05/18 07:41:08;;;;;;;17.48;16.08;;;22.30;64.30;;;;;;4992638;28;20057;-77
2022/05/18 07:43:34;;;;;;;17.33;15.82;;;22.50;63.70;;;;;;4993986;28;20034;-77
2022/05/18 07:46:00;;;;;;;17.42;16.15;;;22.80;61.90;;;;;;5010847;28;20042;-77
2022/05/18 07:48:27;;;;;;;17.08;15.88;;;23.00;62.50;;;;;;5004021;28;20030;-78
2022/05/18 07:50:53;;;;;;;17.95;16.42;;;23.30;62.10;;;;;;5007984;28;20026;-77
2022/05/18 07:53:20;;;;;;;19.15;17.23;;;23.30;60.10;;;;;;5007460;28;20041;-79
2022/05/18 07:55:46;;;;;;;18.88;17.48;;;23.40;64.20;;;;;;5010604;28;20026;-79
2022/05/18 07:58:15;;;;;;;18.80;17.48;;;23.60;60.20;;;;;;5012787;28;20054;-78
2022/05/18 08:00:41;;;;;;;18.45;17.15;;;23.70;58.90;;;;;;5007877;28;20041;-77
2022/05/18 08:03:12;;;;;;;19.63;18.08;;;23.60;59.10;;;;;;5007724;28;20044;-78
2022/05/18 08:05:39;;;;;;;;;;;23.60;59.90;;;;;;5008823;28;20624;-80
2022/05/18 08:08:06;;;;;;;17.90;16.60;;;23.70;57.80;;;;;;5008946;28;19920;-79
2022/05/18 08:16:02;;;;;;;17.95;16.77;;;24.20;56.80;;;;;;5013827;28;21171;-78
2022/05/18 08:18:28;;;;;;;19.30;18.00;;;24.30;55.20;;;;;;5007576;28;20041;-78
2022/05/18 08:20:54;;;;;;;18.08;17.08;;;24.50;54.80;;;;;;4974865;28;20041;-78
2022/05/18 08:23:20;;;;;;;18.42;17.00;;;24.50;53.10;;;;;;5012160;28;20399;-74
2022/05/18 08:25:47;;;;;;;18.30;17.30;;;24.40;53.20;;;;;;5007986;28;20019;-77
2022/05/18 08:28:14;;;;;;;17.00;16.00;;;24.30;53.30;;;;;;5011232;28;20042;-81
2022/05/18 08:30:42;;;;;;;17.45;16.45;;;24.20;52.70;;;;;;4972414;28;20034;-78
2022/05/18 08:33:09;;;;;;;16.17;15.10;;;23.80;52.40;;;;;;5006884;28;20037;-78
2022/05/18 08:35:35;;;;;;;16.08;15.07;;;23.60;54.10;;;;;;5007839;28;20034;-78
2022/05/18 08:38:01;;;;;;;16.17;15.20;;;23.50;53.20;;;;;;5010840;28;20045;-78
2022/05/18 08:40:37;;;;;;;15.55;14.48;;;23.40;52.40;;;;;;5010317;28;20539;-78
2022/05/18 08:43:07;;;;;;;15.68;14.70;;;23.30;52.70;;;;;;5008666;28;20034;-78
2022/05/18 08:45:36;;;;;;;15.52;14.48;;;23.30;54.10;;;;;;5009238;28;20065;-78
2022/05/18 08:48:40;;;;;;;14.98;13.98;;;23.50;53.60;;;;;;5009422;28;20033;-79
2022/05/18 08:51:27;;;;;;;15.20;14.35;;;23.60;53.20;;;;;;5008411;28;20463;-79
2022/05/18 08:54:15;;;;;;;15.68;14.43;;;23.70;52.00;;;;;;4995239;28;20054;-79
2022/05/18 08:56:42;;;;;;;15.65;14.65;;;23.90;50.70;;;;;;4992482;28;20499;-79
2022/05/18 08:59:24;;;;;;;15.77;14.98;;;23.90;50.80;;;;;;5006732;28;20054;-79
2022/05/18 09:01:51;;;;;;;15.85;14.95;;;23.90;49.10;;;;;;4994295;28;20514;-79
2022/05/18 09:04:18;;;;;;;16.13;15.05;;;23.90;49.70;;;;;;4995093;28;20064;-78
2022/05/18 09:06:56;;;;;;;16.80;15.77;;;24.10;50.50;;;;;;4992648;28;20045;-78
2022/05/18 09:12:53;;;;;;;;;;;24.50;50.00;;;;;;4951484;28;20054;-78
2022/05/18 09:15:25;;;;;;;16.17;15.27;;;24.80;49.20;;;;;;4955188;28;19910;-77
2022/05/18 09:18:10;;;;;;;16.48;15.50;;;24.90;50.10;;;;;;4935384;28;20051;-77
2022/05/18 09:20:45;;;;;;;16.58;15.68;;;24.80;49.80;;;;;;4955182;28;20046;-77
2022/05/18 09:23:20;;;;;;;17.35;16.27;;;24.70;50.70;;;;;;4952442;28;20027;-76
2022/05/18 09:26:03;;;;;;;17.52;16.63;;;24.90;51.10;;;;;;4955877;28;20445;-76
2022/05/18 09:28:32;;;;;;;17.42;16.23;;;25.20;51.50;;;;;;4937772;28;20039;-76
2022/05/18 09:31:26;;;;;;;18.05;16.73;;;25.50;50.30;;;;;;4930032;28;20040;-77
2022/05/18 09:34:10;;;;;;;18.25;17.25;;;25.50;50.40;;;;;;4940202;28;20042;-81
2022/05/18 09:36:46;;;;;;;18.42;17.23;;;25.80;49.70;;;;;;4919800;29;20039;-82
2022/05/18 09:39:17;;;;;;;19.15;17.73;;;26.00;49.10;;;;;;4909505;28;20432;-82
2022/05/18 09:41:52;;;;;;;18.30;17.23;;;26.00;48.70;;;;;;4915622;29;20039;-82
2022/05/18 09:44:34;;;;;;;19.77;18.60;;;26.20;49.20;;;;;;4983462;28;20038;-79
2022/05/18 09:47:00;;;;;;;18.27;17.27;;;25.90;48.60;;;;;;5008429;28;20033;-79
2022/05/18 09:49:31;;;;;;;19.00;17.92;;;26.00;49.10;;;;;;5008788;28;20045;-77
2022/05/18 09:51:58;;;;;;;18.65;17.65;;;26.10;48.50;;;;;;5009408;28;20034;-78
2022/05/18 09:54:25;;;;;;;19.58;18.55;;;26.20;47.70;;;;;;5007272;28;20026;-79
2022/05/18 09:56:59;;;;;;;20.50;19.50;;;26.40;47.90;;;;;;5007562;28;20034;-87
2022/05/18 09:59:28;;;;;;;17.65;16.70;;;26.50;47.30;;;;;;5008424;28;20034;-83
2022/05/18 10:07:27;;;;;;;18.88;17.88;;;26.00;47.60;;;;;;5010452;28;20044;-79
2022/05/18 10:10:02;;;;;;;20.38;19.17;;;26.00;47.50;;;;;;5008187;28;20030;-83
2022/05/18 10:12:36;;;;;;;19.35;18.10;;;26.30;48.00;;;;;;5005797;28;20387;-77
2022/05/18 10:15:07;;;;;;;20.10;19.08;;;26.60;48.10;;;;;;5006526;28;20042;-79
2022/05/18 10:17:37;;;;;;;20.48;19.38;;;26.80;46.40;;;;;;5011217;28;20041;-78
2022/05/18 10:20:11;;;;;;;21.23;19.85;;;26.90;46.40;;;;;;5011811;28;20046;-77
2022/05/18 10:22:42;;;;;;;19.90;18.80;;;27.00;46.10;;;;;;4980110;28;20057;-77
2022/05/18 10:25:14;;;;;;;20.85;19.45;;;26.80;46.60;;;;;;5012968;28;20037;-78
2022/05/18 10:27:43;;;;;;;19.50;18.45;;;26.60;46.70;;;;;;5012941;28;20022;-77
2022/05/18 10:30:17;;;;;;;20.02;18.98;;;26.60;46.60;;;;;;4994738;28;20045;-77
2022/05/18 10:33:00;;;;;;;20.20;19.00;;;26.50;46.90;;;;;;5010761;28;20057;-77
2022/05/18 10:35:49;;;;;;;20.33;19.23;;;26.30;47.70;;;;;;5006679;28;20026;-77
2022/05/18 10:38:22;;;;;;;19.40;18.15;;;26.50;46.80;;;;;;5010704;28;20045;-78
2022/05/18 10:40:49;;;;;;;20.27;19.17;;;26.60;47.30;;;;;;5010873;28;20049;-78
2022/05/18 10:43:38;;;;;;;19.88;18.80;;;26.80;45.90;;;;;;4995570;28;20034;-78
2022/05/18 10:46:12;;;;;;;20.00;19.00;;;27.00;45.60;;;;;;5008879;28;20042;-78
2022/05/18 10:49:01;;;;;;;20.52;19.45;;;27.10;45.90;;;;;;5013439;28;20033;-78
2022/05/18 10:51:29;;;;;;;20.33;19.33;;;27.00;46.40;;;;;;5011288;28;20044;-76
2022/05/18 10:54:05;;;;;;;20.23;19.02;;;27.10;45.70;;;;;;4996033;28;20038;-77
2022/05/18 10:56:31;;;;;;;21.17;20.08;;;27.20;44.90;;;;;;5011331;28;20025;-77
2022/05/18 10:59:19;;;;;;;23.02;21.83;;;27.30;45.10;;;;;;5012378;28;20041;-77
2022/05/18 11:01:50;;;;;;;21.80;20.65;;;27.40;44.00;;;;;;4999681;28;20026;-77
2022/05/18 11:04:19;;;;;;;24.75;23.50;;;27.50;44.80;;;;;;5012433;28;20033;-77
2022/05/18 11:06:45;;;;;;;23.88;22.33;;;27.90;44.20;;;;;;5009142;28;20034;-78
2022/05/18 11:09:19;;;;;;;23.75;22.55;;;27.90;42.50;;;;;;5013557;28;20042;-77
2022/05/18 11:11:51;;;;;;;24.77;23.58;;;27.90;42.30;;;;;;5011926;28;20030;-77
2022/05/18 11:14:26;;;;;;;23.50;22.25;;;28.00;41.80;;;;;;5011923;28;20055;-77
2022/05/18 11:17:36;;;;;;;24.70;23.38;;;27.90;42.40;;;;;;5011992;28;20054;-77
2022/05/18 11:20:26;;;;;;;1999.90;999.90;;;28.00;41.80;;;;;;5000491;28;20395;-77
2022/05/18 11:23:13;;;;;;;24.63;23.30;;;28.10;42.00;;;;;;4999419;28;20022;-77
2022/05/18 11:25:51;;;;;;;1999.90;999.90;;;28.10;42.20;;;;;;4997065;28;20041;-77
2022/05/18 11:28:33;;;;;;;519.47;268.42;;;28.30;41.10;;;;;;4978776;28;20514;-77
2022/05/18 11:31:11;;;;;;;1999.90;999.90;;;28.40;42.40;;;;;;4990878;28;20031;-77
2022/05/18 11:33:40;;;;;;;1999.90;999.90;;;28.40;39.50;;;;;;5012623;28;20442;-77
2022/05/18 11:36:30;;;;;;;1999.90;999.90;;;28.50;39.80;;;;;;4991184;28;20403;-77
2022/05/18 11:39:23;;;;;;;1999.90;999.90;;;28.50;39.30;;;;;;5006395;28;20049;-78
2022/05/18 11:42:10;;;;;;;1999.90;999.90;;;28.30;39.50;;;;;;5011008;28;20407;-77
2022/05/18 11:44:55;;;;;;;1999.90;999.90;;;28.40;40.00;;;;;;5009786;28;20045;-77
2022/05/18 11:47:23;;;;;;;1999.90;999.90;;;28.40;39.20;;;;;;5009967;28;20033;-78
2022/05/18 11:50:05;;;;;;;1999.90;999.90;;;28.30;40.00;;;;;;5010267;28;20049;-77
2022/05/18 11:52:43;;;;;;;1999.90;999.90;;;28.30;38.80;;;;;;5010379;28;20041;-77
2022/05/18 11:55:20;;;;;;;1999.90;999.90;;;28.30;38.90;;;;;;5007062;28;20041;-77
2022/05/18 11:58:13;;;;;;;1999.90;999.90;;;28.30;38.60;;;;;;5010812;28;20217;-77
2022/05/18 12:01:06;;;;;;;518.22;267.33;;;28.30;39.50;;;;;;5010706;28;20426;-77
2022/05/18 12:03:56;;;;;;;1999.90;999.90;;;28.30;39.60;;;;;;4996471;28;20049;-77
2022/05/18 12:07:01;;;;;;;1999.90;999.90;;;28.40;39.40;;;;;;5012466;28;20506;-78
2022/05/18 12:09:49;;;;;;;1999.90;999.90;;;28.50;39.30;;;;;;5012843;28;20041;-77
2022/05/18 12:12:27;;;;;;;1999.90;999.90;;;28.70;39.20;;;;;;5014665;28;20036;-77
2022/05/18 12:15:24;;;;;;;1999.90;999.90;;;28.90;39.30;;;;;;4994920;28;20048;-77
2022/05/18 12:17:56;;;;;;;1999.90;999.90;;;29.00;39.60;;;;;;5014765;28;20029;-77
2022/05/18 12:20:28;;;;;;;1999.90;999.90;;;29.10;38.80;;;;;;5011202;28;20064;-77
2022/05/18 12:22:57;;;;;;;1506.63;756.30;;;28.90;39.70;;;;;;5016538;28;20053;-77
2022/05/18 12:25:24;;;;;;;1999.90;999.90;;;28.80;39.70;;;;;;4995569;28;20037;-77
2022/05/18 12:27:52;;;;;;;1999.90;999.90;;;29.00;39.80;;;;;;4992460;28;20038;-77
2022/05/18 12:30:19;;;;;;;1999.90;999.90;;;29.20;39.10;;;;;;5010532;28;20505;-77
2022/05/18 12:32:46;;;;;;;1999.90;999.90;;;29.00;39.60;;;;;;4996386;28;20057;-77
2022/05/18 12:35:14;;;;;;;1999.90;999.90;;;29.10;40.40;;;;;;5007931;28;20034;-77
2022/05/18 12:38:07;;;;;;;1999.90;999.90;;;29.20;39.30;;;;;;5013276;28;20033;-77
2022/05/18 12:40:44;;;;;;;1999.90;999.90;;;29.20;39.70;;;;;;5012929;28;20458;-78
2022/05/18 12:43:27;;;;;;;1999.90;999.90;;;29.10;39.60;;;;;;4997533;28;20037;-77
2022/05/18 12:46:04;;;;;;;1999.90;999.90;;;29.20;39.30;;;;;;5021318;28;20034;-77
2022/05/18 12:48:43;;;;;;;1999.90;999.90;;;29.20;40.20;;;;;;4995270;28;20053;-78
2022/05/18 12:51:13;;;;;;;1999.90;999.90;;;29.40;39.80;;;;;;5010423;28;20036;-78
2022/05/18 12:53:49;;;;;;;1999.90;999.90;;;29.70;39.70;;;;;;5009423;28;20037;-77
2022/05/18 12:56:20;;;;;;;1999.90;999.90;;;29.90;39.70;;;;;;5004443;28;20054;-76
2022/05/18 12:58:53;;;;;;;;;;;29.90;38.50;;;;;;5010631;28;20026;-78
2022/05/18 13:01:20;;;;;;;1999.90;999.90;;;29.90;38.60;;;;;;5008038;28;19910;-83